createdAt,value
2022-07-25T00:00:01.825Z,3.47
2022-07-25T00:02:30.138Z,3.28
2022-07-25T00:04:58.591Z,3.20
2022-07-25T00:07:27.776Z,2.88
2022-07-25T00:09:56.119Z,3.28
2022-07-25T00:12:26.822Z,3.38
2022-07-25T00:14:55.130Z,3.30
2022-07-25T00:17:24.625Z,3.40
2022-07-25T00:22:20.862Z,3.13
2022-07-25T00:24:48.977Z,3.25
2022-07-25T00:27:17.120Z,3.50
2022-07-25T00:29:45.497Z,3.58
2022-07-25T00:32:13.682Z,3.13
2022-07-25T00:34:43.241Z,3.42
2022-07-25T00:37:11.843Z,3.20
2022-07-25T00:39:40.465Z,3.15
2022-07-25T00:42:08.894Z,3.08
2022-07-25T00:44:37.301Z,3.20
2022-07-25T00:47:05.887Z,3.35
2022-07-25T00:49:34.028Z,2.60
2022-07-25T00:52:03.939Z,2.97
2022-07-25T00:54:32.226Z,2.90
2022-07-25T00:57:00.328Z,2.70
2022-07-25T00:59:30.772Z,2.47
2022-07-25T01:01:59.079Z,2.95
2022-07-25T01:04:27.280Z,2.63
2022-07-25T01:06:56.019Z,3.05
2022-07-25T01:09:26.601Z,3.20
2022-07-25T01:11:54.876Z,3.20
2022-07-25T01:14:23.339Z,3.20
2022-07-25T01:16:51.426Z,3.13
2022-07-25T01:19:19.516Z,3.38
2022-07-25T01:21:49.280Z,3.50
2022-07-25T01:24:17.441Z,2.95
2022-07-25T01:26:45.592Z,3.20
2022-07-25T01:29:13.956Z,2.35
2022-07-25T01:31:42.073Z,2.80
2022-07-25T01:34:10.518Z,2.95
2022-07-25T01:36:38.900Z,2.72
2022-07-25T01:39:08.485Z,2.65
2022-07-25T01:41:37.391Z,2.40
2022-07-25T01:44:06.354Z,2.90
2022-07-25T01:46:34.766Z,2.85
2022-07-25T01:49:02.933Z,3.20
2022-07-25T01:51:31.277Z,2.85
2022-07-25T01:53:59.405Z,3.03
2022-07-25T01:56:31.979Z,3.10
2022-07-25T01:59:00.361Z,3.13
2022-07-25T02:01:28.604Z,2.92
2022-07-25T02:03:56.787Z,3.60
2022-07-25T02:06:25.156Z,3.58
2022-07-25T02:08:53.326Z,3.30
2022-07-25T02:11:21.450Z,3.30
2022-07-25T02:13:51.126Z,3.08
2022-07-25T02:18:57.673Z,2.85
2022-07-25T02:21:26.047Z,2.80
2022-07-25T02:23:54.486Z,2.90
2022-07-25T02:26:22.841Z,2.53
2022-07-25T02:28:52.827Z,3.22
2022-07-25T02:31:20.981Z,3.30
2022-07-25T02:33:49.546Z,3.20
2022-07-25T02:36:17.776Z,3.13
2022-07-25T02:38:46.126Z,3.33
2022-07-25T02:41:14.435Z,3.33
2022-07-25T02:43:42.591Z,3.65
2022-07-25T02:46:12.138Z,3.15
2022-07-25T02:48:40.649Z,3.45
2022-07-25T02:51:09.140Z,3.45
2022-07-25T02:53:56.623Z,3.35
2022-07-25T02:56:25.853Z,3.58
2022-07-25T02:58:55.059Z,3.55
2022-07-25T03:01:27.048Z,3.30
2022-07-25T03:03:58.430Z,3.40
2022-07-25T03:06:26.538Z,3.33
2022-07-25T03:08:54.723Z,2.90
2022-07-25T03:11:35.889Z,3.35
2022-07-25T03:14:04.325Z,3.42
2022-07-25T03:16:34.248Z,3.50
2022-07-25T03:21:31.648Z,3.58
2022-07-25T03:26:27.837Z,3.17
2022-07-25T03:28:56.259Z,3.38
2022-07-25T03:31:24.830Z,3.13
2022-07-25T03:33:54.428Z,3.20
2022-07-25T03:36:22.680Z,3.63
2022-07-25T03:38:51.004Z,3.05
2022-07-25T03:41:19.248Z,3.15
2022-07-25T03:43:47.349Z,2.65
2022-07-25T03:46:16.293Z,2.28
2022-07-25T03:48:44.619Z,2.22
2022-07-25T03:51:14.099Z,2.50
2022-07-25T03:54:00.091Z,2.40
2022-07-25T03:56:29.285Z,2.75
2022-07-25T04:01:26.599Z,2.05
2022-07-25T04:03:55.079Z,2.25
2022-07-25T04:06:24.898Z,2.13
2022-07-25T04:08:53.563Z,2.35
2022-07-25T04:11:22.338Z,2.33
2022-07-25T04:13:51.123Z,2.05
2022-07-25T04:16:22.365Z,2.00
2022-07-25T04:18:51.793Z,2.13
2022-07-25T04:23:50.316Z,2.05
2022-07-25T04:26:18.686Z,1.90
2022-07-25T04:28:47.345Z,1.95
2022-07-25T04:31:16.148Z,1.90
2022-07-25T04:33:44.599Z,2.50
2022-07-25T04:36:13.298Z,2.15
2022-07-25T04:38:41.448Z,2.17
2022-07-25T04:41:10.950Z,1.98
2022-07-25T04:43:40.857Z,2.20
2022-07-25T04:46:10.867Z,1.92
2022-07-25T04:48:39.148Z,2.30
2022-07-25T04:51:10.678Z,1.98
2022-07-25T04:56:07.719Z,2.20
2022-07-25T04:58:37.723Z,1.90
2022-07-25T05:01:07.482Z,2.00
2022-07-25T05:03:36.120Z,2.00
2022-07-25T05:06:04.668Z,1.70
2022-07-25T05:08:32.778Z,2.08
2022-07-25T05:11:00.860Z,1.90
2022-07-25T05:13:29.239Z,2.20
2022-07-25T05:15:58.817Z,2.10
2022-07-25T05:18:27.153Z,1.55
2022-07-25T05:20:55.753Z,1.48
2022-07-25T05:23:23.903Z,1.57
2022-07-25T05:25:52.041Z,1.50
2022-07-25T05:28:20.396Z,1.45
2022-07-25T05:30:48.512Z,1.85
2022-07-25T05:33:17.934Z,1.52
2022-07-25T05:35:46.399Z,1.40
2022-07-25T05:38:14.479Z,1.73
2022-07-25T05:40:42.531Z,1.35
2022-07-25T05:43:10.999Z,1.38
2022-07-25T05:45:39.134Z,1.40
2022-07-25T05:48:08.035Z,1.40
2022-07-25T05:50:39.222Z,1.70
2022-07-25T05:53:07.351Z,1.50
2022-07-25T05:55:35.556Z,1.52
2022-07-25T05:58:09.485Z,1.70
2022-07-25T06:00:37.936Z,1.15
2022-07-25T06:03:06.292Z,1.38
2022-07-25T06:05:34.841Z,1.40
2022-07-25T06:08:17.866Z,1.73
2022-07-25T06:10:46.237Z,1.83
2022-07-25T06:13:14.526Z,1.10
2022-07-25T06:15:42.916Z,1.20
2022-07-25T06:18:11.274Z,1.63
2022-07-25T06:20:39.353Z,1.40
2022-07-25T06:23:08.964Z,1.02
2022-07-25T06:25:37.564Z,1.20
2022-07-25T06:28:06.589Z,1.50
2022-07-25T06:30:39.689Z,1.27
2022-07-25T06:33:07.907Z,1.70
2022-07-25T06:35:36.131Z,1.50
2022-07-25T06:38:04.589Z,1.70
2022-07-25T06:40:34.030Z,1.40
2022-07-25T06:43:02.169Z,1.63
2022-07-25T06:45:30.480Z,1.70
2022-07-25T06:47:58.702Z,1.85
2022-07-25T06:50:27.504Z,1.40
2022-07-25T06:52:56.111Z,1.40
2022-07-25T06:55:24.187Z,1.37
2022-07-25T06:57:53.716Z,1.60
2022-07-25T07:00:22.061Z,1.45
2022-07-25T07:02:52.191Z,1.30
2022-07-25T07:05:20.919Z,1.88
2022-07-25T07:07:51.341Z,1.70
2022-07-25T07:10:20.264Z,1.70
2022-07-25T07:12:48.839Z,1.65
2022-07-25T07:15:19.270Z,1.50
2022-07-25T07:17:47.304Z,1.20
2022-07-25T07:20:15.350Z,1.70
2022-07-25T07:22:47.970Z,1.67
2022-07-25T07:25:17.458Z,1.60
2022-07-25T07:27:49.065Z,1.88
2022-07-25T07:33:01.700Z,1.80
2022-07-25T07:35:30.122Z,1.63
2022-07-25T07:38:04.030Z,1.50
2022-07-25T07:40:33.194Z,1.87
2022-07-25T07:45:34.262Z,1.60
2022-07-25T07:48:02.444Z,1.60
2022-07-25T07:50:31.401Z,1.85
2022-07-25T07:55:45.676Z,1.70
2022-07-25T07:58:16.880Z,1.63
2022-07-25T08:00:48.296Z,1.70
2022-07-25T08:03:20.952Z,1.70
2022-07-25T08:05:51.878Z,1.90
2022-07-25T08:08:20.902Z,1.83
2022-07-25T08:10:51.902Z,2.10
2022-07-25T08:13:25.365Z,1.83
2022-07-25T08:15:58.044Z,2.15
2022-07-25T08:18:27.287Z,2.30
2022-07-25T08:20:56.812Z,2.40
2022-07-25T08:23:25.511Z,2.38
2022-07-25T08:25:54.972Z,2.20
2022-07-25T08:28:23.768Z,1.67
2022-07-25T08:30:52.308Z,2.10
2022-07-25T08:33:22.596Z,2.10
2022-07-25T08:35:53.844Z,1.67
2022-07-25T08:38:28.018Z,2.20
2022-07-25T08:40:57.353Z,1.80
2022-07-25T08:43:26.028Z,1.92
2022-07-25T08:45:56.098Z,1.77
2022-07-25T08:48:27.174Z,1.42
2022-07-25T08:50:57.480Z,1.58
2022-07-25T08:53:33.232Z,1.70
2022-07-25T08:56:08.021Z,1.83
2022-07-25T08:58:38.929Z,1.98
2022-07-25T09:01:08.107Z,1.80
2022-07-25T09:03:37.756Z,1.88
2022-07-25T09:06:18.870Z,1.73
2022-07-25T09:08:55.123Z,1.67
2022-07-25T09:11:34.444Z,1.70
2022-07-25T09:14:07.391Z,1.60
2022-07-25T09:19:56.839Z,1.50
2022-07-25T09:22:50.432Z,1.50
2022-07-25T09:25:30.094Z,1.80
2022-07-25T09:28:14.140Z,1.70
2022-07-25T09:30:55.090Z,1.75
2022-07-25T09:33:24.441Z,2.15
2022-07-25T09:35:55.791Z,1.92
2022-07-25T09:38:29.480Z,1.80
2022-07-25T09:41:12.158Z,1.80
2022-07-25T09:43:44.520Z,1.83
2022-07-25T09:46:13.858Z,1.95
2022-07-25T09:51:15.507Z,2.03
2022-07-25T09:53:44.407Z,1.70
2022-07-25T09:56:12.733Z,1.98
2022-07-25T09:58:41.316Z,2.08
2022-07-25T10:01:09.821Z,1.80
2022-07-25T10:03:49.528Z,1.75
2022-07-25T10:06:29.378Z,1.75
2022-07-25T10:08:58.978Z,1.95
2022-07-25T10:11:30.099Z,2.15
2022-07-25T10:14:12.019Z,2.35
2022-07-25T10:17:12.753Z,1.95
2022-07-25T10:24:36.161Z,2.38
2022-07-25T10:27:15.468Z,2.40
2022-07-25T10:29:58.728Z,2.00
2022-07-25T10:32:53.270Z,2.28
2022-07-25T10:35:23.059Z,2.20
2022-07-25T10:37:52.564Z,2.22
2022-07-25T10:40:30.414Z,2.17
2022-07-25T10:43:03.137Z,2.10
2022-07-25T10:45:43.758Z,1.98
2022-07-25T10:48:22.248Z,2.15
2022-07-25T10:50:56.011Z,2.10
2022-07-25T10:53:36.549Z,2.20
2022-07-25T10:56:08.633Z,2.30
2022-07-25T10:58:48.616Z,2.13
2022-07-25T11:01:22.058Z,2.10
2022-07-25T11:03:53.032Z,1.90
2022-07-25T11:06:31.910Z,2.17
2022-07-25T11:09:01.486Z,1.60
2022-07-25T11:11:40.559Z,2.10
2022-07-25T11:14:16.717Z,1.65
2022-07-25T11:16:46.107Z,2.05
2022-07-25T11:19:23.601Z,2.17
2022-07-25T11:21:53.872Z,1.95
2022-07-25T11:24:22.574Z,2.15
2022-07-25T11:26:54.242Z,2.22
2022-07-25T11:29:24.257Z,1.80
2022-07-25T11:31:54.375Z,1.80
2022-07-25T11:34:25.276Z,1.98
2022-07-25T11:36:57.286Z,1.88
2022-07-25T11:39:27.253Z,1.95
2022-07-25T11:42:07.906Z,1.80
2022-07-25T11:44:37.891Z,2.33
2022-07-25T11:47:08.394Z,2.28
2022-07-25T11:49:46.718Z,1.70
2022-07-25T11:52:22.827Z,2.03
2022-07-25T11:54:55.980Z,1.80
2022-07-25T11:57:27.390Z,2.05
2022-07-25T11:59:56.348Z,2.00
2022-07-25T12:04:58.969Z,1.80
2022-07-25T12:07:38.355Z,1.40
2022-07-25T12:10:08.081Z,1.83
2022-07-25T12:12:49.894Z,1.70
2022-07-25T12:15:20.799Z,1.92
2022-07-25T12:17:50.289Z,2.08
2022-07-25T12:20:21.546Z,1.60
2022-07-25T12:22:51.135Z,1.77
2022-07-25T12:25:19.593Z,1.60
2022-07-25T12:27:49.966Z,1.80
2022-07-25T12:30:18.578Z,1.63
2022-07-25T12:32:47.163Z,2.00
2022-07-25T12:35:15.789Z,1.80
2022-07-25T12:37:44.688Z,1.52
2022-07-25T12:40:15.212Z,1.88
2022-07-25T12:42:43.668Z,1.67
2022-07-25T12:45:14.820Z,1.83
2022-07-25T12:47:45.520Z,1.80
2022-07-25T12:50:14.632Z,1.45
2022-07-25T12:52:44.004Z,1.80
2022-07-25T12:55:16.865Z,1.80
2022-07-25T12:57:45.071Z,2.10
2022-07-25T13:00:17.269Z,2.10
2022-07-25T13:02:45.634Z,1.70
2022-07-25T13:05:14.993Z,1.65
2022-07-25T13:07:43.450Z,2.03
2022-07-25T13:10:12.714Z,1.50
2022-07-25T13:12:40.935Z,1.67
2022-07-25T13:15:10.744Z,1.50
2022-07-25T13:17:43.200Z,2.60
2022-07-25T13:20:15.711Z,1.70
2022-07-25T13:22:44.404Z,1.90
2022-07-25T13:25:15.926Z,2.28
2022-07-25T13:27:44.388Z,1.83
2022-07-25T13:30:14.531Z,1.88
2022-07-25T13:32:46.340Z,1.67
2022-07-25T13:35:19.128Z,1.60
2022-07-25T13:37:48.844Z,1.48
2022-07-25T13:40:16.948Z,1.65
2022-07-25T13:42:45.441Z,1.02
2022-07-25T13:45:14.037Z,1.50
2022-07-25T13:47:42.355Z,1.60
2022-07-25T13:50:12.233Z,1.25
2022-07-25T13:52:42.990Z,1.40
2022-07-25T13:55:12.100Z,1.25
2022-07-25T13:57:40.561Z,1.45
2022-07-25T14:00:10.385Z,1.38
2022-07-25T14:02:41.573Z,1.40
2022-07-25T14:05:12.290Z,1.48
2022-07-25T14:07:43.379Z,1.30
2022-07-25T14:10:12.569Z,1.27
2022-07-25T14:12:40.775Z,1.23
2022-07-25T14:15:13.374Z,1.30
2022-07-25T14:17:55.032Z,1.27
2022-07-25T14:35:22.606Z,1.50
2022-07-25T14:37:52.891Z,2.47
2022-07-25T14:40:24.540Z,1.40
2022-07-25T14:42:55.084Z,1.30
2022-07-25T14:45:25.726Z,1.80
2022-07-25T14:47:54.074Z,1.20
2022-07-25T14:50:28.529Z,1.20
2022-07-25T14:52:59.845Z,1.30
2022-07-25T14:55:46.205Z,1.20
2022-07-25T14:58:15.804Z,1.35
2022-07-25T15:00:46.099Z,1.60
2022-07-25T15:03:15.564Z,1.27
2022-07-25T15:05:44.430Z,1.30
2022-07-25T15:08:14.412Z,1.33
2022-07-25T15:10:43.974Z,1.38
2022-07-25T15:16:01.526Z,1.20
2022-07-25T15:18:30.338Z,1.38
2022-07-25T15:20:58.562Z,1.17
2022-07-25T15:23:30.374Z,1.10
2022-07-25T15:26:03.159Z,1.35
2022-07-25T15:28:31.922Z,1.10
2022-07-25T15:33:28.807Z,1.10
2022-07-25T15:35:57.099Z,0.90
2022-07-25T15:38:25.766Z,1.00
2022-07-25T15:40:54.116Z,1.50
2022-07-25T15:43:23.816Z,1.15
2022-07-25T15:45:52.692Z,1.38
2022-07-25T15:48:20.950Z,1.30
2022-07-25T15:50:51.603Z,1.10
2022-07-25T15:53:20.623Z,1.20
2022-07-25T15:55:48.820Z,0.93
2022-07-25T15:58:17.097Z,1.35
2022-07-25T16:00:47.025Z,0.90
2022-07-25T16:03:15.344Z,0.95
2022-07-25T16:05:44.699Z,1.02
2022-07-25T16:08:13.231Z,1.02
2022-07-25T16:10:41.775Z,1.00
2022-07-25T16:13:09.983Z,1.38
2022-07-25T16:15:38.630Z,1.08
2022-07-25T16:18:08.357Z,0.82
2022-07-25T16:20:36.663Z,1.10
2022-07-25T16:23:05.019Z,0.93
2022-07-25T16:25:33.195Z,1.13
2022-07-25T16:28:01.494Z,1.08
2022-07-25T16:30:30.103Z,0.98
2022-07-25T16:32:58.221Z,1.00
2022-07-25T16:35:27.782Z,1.10
2022-07-25T16:37:56.187Z,1.10
2022-07-25T16:40:28.724Z,0.85
2022-07-25T16:42:59.898Z,0.93
2022-07-25T16:45:30.630Z,0.93
2022-07-25T16:47:58.732Z,0.88
2022-07-25T16:50:28.553Z,0.80
2022-07-25T16:52:56.840Z,1.00
2022-07-25T16:55:25.073Z,1.10
2022-07-25T16:57:53.845Z,0.95
2022-07-25T17:00:22.168Z,0.80
2022-07-25T17:02:50.312Z,0.98
2022-07-25T17:05:21.338Z,0.95
2022-07-25T17:07:59.031Z,0.93
2022-07-25T17:10:28.671Z,0.93
2022-07-25T17:12:57.628Z,1.02
2022-07-25T17:15:25.893Z,1.20
2022-07-25T17:17:54.288Z,0.80
2022-07-25T17:20:22.863Z,1.00
2022-07-25T17:22:52.568Z,0.98
2022-07-25T17:25:21.069Z,0.90
2022-07-25T17:27:49.212Z,0.93
2022-07-25T17:30:17.395Z,0.93
2022-07-25T17:32:45.805Z,1.08
2022-07-25T17:35:14.017Z,0.90
2022-07-25T17:37:42.938Z,1.27
2022-07-25T17:40:13.078Z,1.10
2022-07-25T17:42:45.079Z,1.35
2022-07-25T17:45:14.582Z,1.33
2022-07-25T17:47:43.369Z,1.20
2022-07-25T17:50:12.590Z,1.10
2022-07-25T17:52:41.396Z,1.30
2022-07-25T17:55:10.268Z,1.25
2022-07-25T18:00:11.615Z,1.10
2022-07-25T18:02:39.937Z,1.10
2022-07-25T18:05:09.071Z,1.20
2022-07-25T18:07:40.717Z,1.10
2022-07-25T18:10:09.380Z,1.10
2022-07-25T18:12:40.292Z,1.20
2022-07-25T18:15:09.747Z,1.33
2022-07-25T18:17:38.004Z,1.10
2022-07-25T18:20:07.094Z,1.02
2022-07-25T18:22:35.246Z,1.10
2022-07-25T18:25:03.661Z,1.30
2022-07-25T18:27:32.086Z,1.35
2022-07-25T18:30:01.695Z,0.80
2022-07-25T18:32:29.915Z,1.27
2022-07-25T18:34:58.411Z,1.25
2022-07-25T18:37:26.951Z,1.40
2022-07-25T18:39:55.756Z,1.25
2022-07-25T18:44:58.509Z,1.70
2022-07-25T18:47:32.391Z,1.50
2022-07-25T18:50:00.726Z,1.25
2022-07-25T18:52:34.724Z,1.35
2022-07-25T18:55:04.534Z,1.30
2022-07-25T18:57:35.757Z,1.40
2022-07-25T19:00:05.027Z,1.70
2022-07-25T19:02:34.632Z,1.70
2022-07-25T19:05:03.170Z,1.60
2022-07-25T19:07:31.927Z,1.70
2022-07-25T19:10:00.050Z,1.75
2022-07-25T19:12:28.524Z,1.93
2022-07-25T19:14:57.540Z,1.90
2022-07-25T19:17:25.850Z,1.45
2022-07-25T19:19:55.842Z,1.60
2022-07-25T19:22:24.236Z,2.42
2022-07-25T19:24:52.472Z,1.65
2022-07-25T19:27:23.826Z,1.77
2022-07-25T19:29:57.322Z,1.67
2022-07-25T19:32:28.734Z,1.92
2022-07-25T19:35:00.558Z,1.80
2022-07-25T19:37:33.223Z,2.30
2022-07-25T19:40:02.280Z,2.35
2022-07-25T19:45:07.200Z,1.98
2022-07-25T19:50:07.897Z,1.98
2022-07-25T19:52:37.534Z,2.35
2022-07-25T19:55:07.039Z,1.95
2022-07-25T19:57:35.583Z,2.10
2022-07-25T20:00:07.575Z,1.77
2022-07-25T20:02:38.986Z,1.95
2022-07-25T20:05:11.210Z,2.25
2022-07-25T20:07:39.558Z,2.30
2022-07-25T20:10:09.140Z,2.45
2022-07-25T20:12:37.914Z,2.20
2022-07-25T20:15:07.409Z,1.95
2022-07-25T20:20:03.660Z,2.15
2022-07-25T20:22:37.531Z,2.20
2022-07-25T20:25:06.897Z,2.17
2022-07-25T20:27:35.573Z,2.33
2022-07-25T20:30:04.816Z,2.40
2022-07-25T20:35:01.883Z,2.45
2022-07-25T20:37:30.151Z,2.58
2022-07-25T20:39:59.847Z,3.10
2022-07-25T20:42:28.347Z,2.45
2022-07-25T20:44:57.792Z,2.65
2022-07-25T20:49:54.456Z,2.97
2022-07-25T20:52:22.743Z,3.20
2022-07-25T20:54:52.147Z,2.78
2022-07-25T20:57:22.680Z,2.75
2022-07-25T20:59:50.891Z,2.75
2022-07-25T21:02:19.285Z,2.90
2022-07-25T21:04:48.725Z,3.08
2022-07-25T21:07:17.252Z,2.35
2022-07-25T21:09:45.879Z,2.97
2022-07-25T21:12:14.326Z,3.05
2022-07-25T21:14:43.930Z,3.08
2022-07-25T21:17:12.238Z,3.08
2022-07-25T21:19:40.662Z,3.30
2022-07-25T21:22:08.854Z,3.00
2022-07-25T21:24:37.634Z,3.30
2022-07-25T21:27:06.587Z,3.33
2022-07-25T21:29:34.858Z,3.17
2022-07-25T21:32:05.342Z,3.47
2022-07-25T21:34:33.930Z,3.25
2022-07-25T21:37:02.104Z,3.67
2022-07-25T21:39:30.293Z,3.25
2022-07-25T21:41:58.834Z,3.57
2022-07-25T21:44:27.559Z,3.22
2022-07-25T21:46:55.807Z,3.65
2022-07-25T21:49:43.321Z,3.22
2022-07-25T21:52:13.806Z,2.95
2022-07-25T21:54:43.009Z,3.88
2022-07-25T21:57:13.427Z,3.53
2022-07-25T21:59:42.336Z,3.03
2022-07-25T22:02:17.502Z,3.33
2022-07-25T22:04:47.272Z,2.85
2022-07-25T22:07:15.943Z,2.90
2022-07-25T22:09:46.388Z,3.65
2022-07-25T22:12:16.243Z,3.20
2022-07-25T22:14:57.123Z,3.10
2022-07-25T22:17:27.526Z,3.27
2022-07-25T22:20:18.491Z,3.30
2022-07-25T22:22:47.216Z,3.13
2022-07-25T22:25:16.146Z,2.65
2022-07-25T22:27:45.618Z,2.55
2022-07-25T22:30:18.886Z,2.63
2022-07-25T22:32:48.772Z,2.15
2022-07-25T22:35:20.144Z,2.60
2022-07-25T22:37:51.399Z,2.60
2022-07-25T22:40:19.631Z,2.90
2022-07-25T22:42:47.867Z,2.92
2022-07-25T22:45:16.745Z,3.27
2022-07-25T22:47:45.261Z,2.53
2022-07-25T22:50:13.548Z,2.72
2022-07-25T22:52:43.652Z,4.63
2022-07-25T22:55:12.338Z,3.90
2022-07-25T22:57:40.855Z,4.28
2022-07-25T23:00:12.441Z,4.55
2022-07-25T23:02:41.568Z,4.22
2022-07-25T23:05:11.430Z,4.03
2022-07-25T23:07:39.949Z,3.92
2022-07-25T23:10:11.252Z,4.33
2022-07-25T23:12:40.198Z,4.43
2022-07-25T23:15:09.531Z,3.30
2022-07-25T23:20:07.631Z,3.50
2022-07-25T23:22:36.485Z,3.33
2022-07-25T23:25:05.622Z,3.35
2022-07-25T23:27:35.597Z,3.00
2022-07-25T23:30:05.357Z,2.88
2022-07-25T23:32:35.491Z,3.20
2022-07-25T23:40:18.152Z,3.75
2022-07-25T23:42:47.758Z,3.50
2022-07-25T23:48:05.298Z,4.53
2022-07-25T23:50:33.686Z,4.90
2022-07-25T23:53:01.948Z,4.27
2022-07-25T23:55:30.672Z,4.20
